»·PEaware :: N755ME KSNA-KEED

N755ME :: KSNA-KEED

FLIGHT INFORMATION

Flight Status: Arrived
Operator: Privately registered:
United States
More flights under this callsign
Pilot: Michael D. (15839)
Aircraft: BEECH AIRCRAFT DEBONAIR BONANZA
(BE33)
More flights by this aircraft type
Origin: KSNA John Wayne-Orange Co
United States
Destination: KEED Needles
United States
More flights between these airports :: More routes between these airports
Route: +ANAHM1 HEC V12 EED
File this flight plan on PilotEdge
Remarks:
Altitude:
(Current/Filed)
11,000ft
Speed:
(Current/Filed)
140kts
Departed: 27-Nov-19 06:02 PM
Arrived: 27-Nov-19 07:23 PM
Distance/Time
Traveled:
174nm/1:21
Distance/Time
To Go:
Arrived

Flight Plot

Page will automatically refresh every two minutes.

Flight plan parsing failed; only flown route is shown


Map Options




Map Legend


Flown Route
Filed Route
Departure Airport
Arrival Airport
Navaid (VOR, NDB)
Fix

Horizontal Profiles

Position Reports

Time Latitude Longitude Heading Altitude Ground
Speed
27-Nov-19 17:47 33.671980 -117.867496 206 60ft 0kts
27-Nov-19 17:48 33.671980 -117.867496 206 60ft 0kts
27-Nov-19 17:49 33.671980 -117.867496 206 60ft 0kts
27-Nov-19 17:50 33.671980 -117.867496 206 60ft 0kts
27-Nov-19 17:51 33.671980 -117.867496 206 60ft 0kts
27-Nov-19 17:52 33.671980 -117.867496 206 60ft 0kts
27-Nov-19 17:53 33.671980 -117.867496 206 60ft 0kts
27-Nov-19 17:54 33.671980 -117.867496 206 60ft 0kts
27-Nov-19 17:55 33.671980 -117.867496 206 60ft 0kts
27-Nov-19 17:56 33.672230 -117.867901 343 60ft 8kts
27-Nov-19 17:57 33.675195 -117.866409 28 60ft 11kts
27-Nov-19 17:58 33.677672 -117.864825 28 60ft 9kts
27-Nov-19 17:59 33.679912 -117.863612 327 60ft 0kts
27-Nov-19 18:00 33.679520 -117.864523 202 60ft 23kts
27-Nov-19 18:01 33.666984 -117.881149 256 701ft 84kts
27-Nov-19 18:02 33.657445 -117.908074 228 1322ft 93kts
27-Nov-19 18:03 33.636955 -117.933287 231 1418ft 110kts
27-Nov-19 18:04 33.624228 -117.961383 275 1988ft 102kts
27-Nov-19 18:05 33.652647 -117.978208 337 2132ft 116kts
27-Nov-19 18:06 33.679567 -117.990060 328 2803ft 94kts
27-Nov-19 18:07 33.702470 -118.002962 323 3514ft 98kts
27-Nov-19 18:08 33.730809 -118.017969 340 4255ft 126kts
27-Nov-19 18:09 33.763924 -118.033511 328 4972ft 131kts
27-Nov-19 18:10 33.792847 -118.015960 75 5660ft 145kts
27-Nov-19 18:11 33.804549 -117.970438 79 6357ft 144kts
27-Nov-19 18:12 33.818394 -117.926110 80 7057ft 140kts
27-Nov-19 18:13 33.829544 -117.882415 81 7754ft 137kts
27-Nov-19 18:14 33.840613 -117.838837 82 8464ft 134kts
27-Nov-19 18:15 33.851380 -117.796516 83 9170ft 130kts
27-Nov-19 18:16 33.861680 -117.755988 83 9873ft 123kts
27-Nov-19 18:17 33.871241 -117.718257 85 10563ft 110kts
27-Nov-19 18:18 33.873213 -117.682419 88 10838ft 132kts
27-Nov-19 18:19 33.886611 -117.637007 73 11079ft 160kts
27-Nov-19 18:20 33.906163 -117.588104 62 11269ft 178kts
27-Nov-19 18:21 33.932702 -117.538748 41 11595ft 173kts
27-Nov-19 18:22 33.974670 -117.504918 26 11111ft 198kts
27-Nov-19 18:23 34.020102 -117.470444 24 11027ft 188kts
27-Nov-19 18:24 34.062098 -117.438711 21 11028ft 184kts
27-Nov-19 18:25 34.097714 -117.415024 20 11029ft 183kts
27-Nov-19 18:26 34.142420 -117.386936 24 11026ft 183kts
27-Nov-19 18:27 34.186922 -117.358042 19 11028ft 181kts
27-Nov-19 18:28 34.231538 -117.329369 20 11022ft 182kts
27-Nov-19 18:30 34.277139 -117.309882 358 11013ft 172kts
27-Nov-19 18:31 34.323517 -117.292219 31 10996ft 185kts
27-Nov-19 18:32 34.367747 -117.258656 27 10991ft 190kts
27-Nov-19 18:33 34.414090 -117.227165 26 10988ft 191kts
27-Nov-19 18:34 34.460343 -117.196424 25 11047ft 189kts
27-Nov-19 18:35 34.506724 -117.165124 25 11037ft 191kts
27-Nov-19 18:36 34.544288 -117.119364 50 11025ft 193kts
27-Nov-19 18:37 34.575715 -117.066838 67 11016ft 193kts
27-Nov-19 18:38 34.598747 -117.007475 67 11016ft 195kts
27-Nov-19 18:39 34.621747 -116.947174 67 11017ft 198kts
27-Nov-19 18:40 34.644759 -116.885865 67 11018ft 201kts
27-Nov-19 18:41 34.667863 -116.823484 67 11018ft 203kts
27-Nov-19 18:42 34.691070 -116.760774 67 11019ft 203kts
27-Nov-19 18:43 34.714328 -116.697880 67 11020ft 204kts
27-Nov-19 18:44 34.737625 -116.634834 67 11020ft 204kts
27-Nov-19 18:45 34.760933 -116.571747 67 11021ft 204kts
27-Nov-19 18:46 34.780323 -116.506987 79 11022ft 202kts
27-Nov-19 18:47 34.791746 -116.440345 86 11022ft 201kts
27-Nov-19 18:48 34.794389 -116.373618 99 11027ft 196kts
27-Nov-19 18:49 34.793407 -116.307209 99 11034ft 194kts
27-Nov-19 18:49 34.792775 -116.252567 99 11047ft 193kts
27-Nov-19 18:51 34.792808 -116.175955 98 11065ft 194kts
27-Nov-19 18:52 34.793101 -116.110099 98 11072ft 194kts
27-Nov-19 18:52 34.793298 -116.055113 98 11072ft 195kts
27-Nov-19 18:53 34.793557 -115.988971 98 11073ft 195kts
27-Nov-19 18:55 34.793766 -115.911641 98 11073ft 195kts
27-Nov-19 18:55 34.793927 -115.856490 98 11074ft 196kts
27-Nov-19 18:56 34.794147 -115.789873 98 11075ft 196kts
27-Nov-19 18:57 34.793799 -115.723631 99 11075ft 196kts
27-Nov-19 18:58 34.793247 -115.657164 99 11071ft 196kts
27-Nov-19 18:59 34.792803 -115.590831 99 11051ft 197kts
27-Nov-19 19:00 34.792151 -115.524230 100 11032ft 197kts
27-Nov-19 19:01 34.791046 -115.457649 100 11043ft 195kts
27-Nov-19 19:02 34.789349 -115.391624 101 11041ft 195kts
27-Nov-19 19:03 34.787616 -115.325323 101 11038ft 194kts
27-Nov-19 19:04 34.785927 -115.261813 101 11042ft 184kts
27-Nov-19 19:05 34.784113 -115.197914 101 10428ft 199kts
27-Nov-19 19:06 34.781739 -115.131090 101 9443ft 194kts
27-Nov-19 19:07 34.779786 -115.067644 101 9018ft 177kts
27-Nov-19 19:08 34.778308 -115.008802 101 9018ft 173kts
27-Nov-19 19:09 34.776708 -114.950154 101 9020ft 173kts
27-Nov-19 19:10 34.774900 -114.891588 101 9019ft 172kts
27-Nov-19 19:11 34.774319 -114.832884 99 9020ft 174kts
27-Nov-19 19:12 34.774077 -114.773972 99 9021ft 173kts
27-Nov-19 19:13 34.773945 -114.715226 99 9020ft 174kts
27-Nov-19 19:14 34.773566 -114.655422 99 8398ft 179kts
27-Nov-19 19:15 34.770318 -114.596275 103 7418ft 173kts
27-Nov-19 19:16 34.766800 -114.540880 103 7012ft 146kts
27-Nov-19 19:17 34.788136 -114.512103 312 5819ft 157kts
27-Nov-19 19:18 34.806789 -114.555981 306 3918ft 136kts
27-Nov-19 19:19 34.812212 -114.586607 214 1837ft 88kts
27-Nov-19 19:20 34.795388 -114.601606 198 1398ft 72kts
27-Nov-19 19:21 34.777211 -114.614309 202 908ft 75kts
27-Nov-19 19:22 34.768318 -114.620250 214 895ft 2kts
27-Nov-19 19:23 34.768287 -114.620275 213 895ft 0kts
27-Nov-19 19:24 34.768287 -114.620275 213 895ft 0kts
27-Nov-19 19:25 34.768287 -114.620275 213 895ft 0kts

Navigation Log

Ident Type
Flight plan parsing failed, navigation log unavailable